createdAt,value
2023-01-28T00:00:53.606Z,95545.78
2023-01-28T00:03:20.210Z,95549.97
2023-01-28T00:05:46.771Z,95552.63
2023-01-28T00:08:14.866Z,95551.72
2023-01-28T00:10:43.073Z,95552.84
2023-01-28T00:13:12.717Z,95551.63
2023-01-28T00:15:39.344Z,95539.38
2023-01-28T00:18:05.901Z,95548.72
2023-01-28T00:20:32.565Z,95547.75
2023-01-28T00:22:59.107Z,95540.25
2023-01-28T00:25:25.649Z,95538.00
2023-01-28T00:27:52.239Z,95543.13
2023-01-28T00:30:19.478Z,95541.50
2023-01-28T00:32:46.091Z,95541.38
2023-01-28T00:35:13.453Z,95546.97
2023-01-28T00:37:41.279Z,95547.38
2023-01-28T00:40:09.845Z,95551.38
2023-01-28T00:42:37.299Z,95549.81
2023-01-28T00:45:04.144Z,95545.34
2023-01-28T00:47:30.693Z,95546.44
2023-01-28T00:49:57.223Z,95550.81
2023-01-28T00:52:23.818Z,95541.28
2023-01-28T00:54:50.334Z,95538.97
2023-01-28T00:57:16.869Z,95538.59
2023-01-28T00:59:43.697Z,95538.81
2023-01-28T01:02:13.879Z,95538.16
2023-01-28T01:04:41.051Z,95549.41
2023-01-28T01:07:07.665Z,95548.59
2023-01-28T01:09:34.612Z,95548.16
2023-01-28T01:12:01.465Z,95546.19
2023-01-28T01:14:28.385Z,95558.41
2023-01-28T01:16:55.099Z,95554.75
2023-01-28T01:19:21.699Z,95557.25
2023-01-28T01:21:50.425Z,95554.06
2023-01-28T01:24:17.558Z,95554.47
2023-01-28T01:26:44.327Z,95559.84
2023-01-28T01:29:10.912Z,95555.94
2023-01-28T01:31:37.551Z,95557.81
2023-01-28T01:34:04.213Z,95553.19
2023-01-28T01:36:31.177Z,95554.00
2023-01-28T01:38:57.964Z,95560.22
2023-01-28T01:41:31.212Z,95558.63
2023-01-28T01:44:03.443Z,95566.25
2023-01-28T01:46:45.563Z,95564.84
2023-01-28T01:49:24.673Z,95561.97
2023-01-28T01:52:01.261Z,95574.16
2023-01-28T01:54:30.830Z,95570.56
2023-01-28T01:56:59.469Z,95570.03
2023-01-28T01:59:31.611Z,95572.88
2023-01-28T02:02:01.458Z,95572.91
2023-01-28T02:04:31.990Z,95573.88
2023-01-28T02:07:01.488Z,95578.50
2023-01-28T02:09:30.787Z,95574.59
2023-01-28T02:12:03.318Z,95571.06
2023-01-28T02:14:34.388Z,95572.75
2023-01-28T02:17:01.937Z,95572.88
2023-01-28T02:19:40.241Z,95577.03
2023-01-28T02:22:24.887Z,95572.91
2023-01-28T02:25:29.519Z,95578.44
2023-01-28T02:28:12.884Z,95580.41
2023-01-28T02:30:44.194Z,95571.38
2023-01-28T02:33:18.288Z,95574.47
2023-01-28T02:35:54.055Z,95571.63
2023-01-28T02:38:33.152Z,95574.72
2023-01-28T02:41:08.889Z,95578.88
2023-01-28T02:43:37.378Z,95590.31
2023-01-28T02:46:39.237Z,95588.59
2023-01-28T02:49:11.774Z,95588.31
2023-01-28T02:51:44.362Z,95581.53
2023-01-28T02:54:17.715Z,95585.09
2023-01-28T02:57:17.965Z,95581.31
2023-01-28T02:59:53.869Z,95576.69
2023-01-28T03:02:42.893Z,95588.81
2023-01-28T03:05:22.381Z,95592.03
2023-01-28T03:07:49.919Z,95587.69
2023-01-28T03:10:20.628Z,95593.38
2023-01-28T03:13:10.275Z,95594.50
2023-01-28T03:16:07.134Z,95587.06
2023-01-28T03:19:10.239Z,95590.03
2023-01-28T03:22:00.869Z,95594.22
2023-01-28T03:24:56.636Z,95589.44
2023-01-28T03:27:51.413Z,95590.78
2023-01-28T03:30:48.227Z,95596.75
2023-01-28T03:33:45.106Z,95601.94
2023-01-28T03:36:30.390Z,95609.78
2023-01-28T03:38:58.444Z,95607.47
2023-01-28T03:41:26.439Z,95613.50
2023-01-28T03:43:55.923Z,95609.22
2023-01-28T03:46:23.035Z,95609.22
2023-01-28T03:48:49.604Z,95610.41
2023-01-28T03:51:17.798Z,95611.09
2023-01-28T03:53:44.355Z,95606.22
2023-01-28T03:56:18.114Z,95614.41
2023-01-28T03:58:53.944Z,95616.50
2023-01-28T04:01:20.952Z,95626.47
2023-01-28T04:03:47.980Z,95616.97
2023-01-28T04:06:18.659Z,95619.78
2023-01-28T04:08:59.232Z,95615.91
2023-01-28T04:11:52.250Z,95625.84
2023-01-28T04:14:40.112Z,95630.38
2023-01-28T04:17:11.070Z,95624.97
2023-01-28T04:19:38.586Z,95631.09
2023-01-28T04:22:10.179Z,95633.81
2023-01-28T04:24:36.994Z,95627.97
2023-01-28T04:27:03.625Z,95630.22
2023-01-28T04:29:31.627Z,95630.72
2023-01-28T04:32:06.994Z,95633.91
2023-01-28T04:34:54.760Z,95631.72
2023-01-28T04:37:27.420Z,95641.69
2023-01-28T04:40:09.765Z,95642.16
2023-01-28T04:43:02.708Z,95637.25
2023-01-28T04:45:36.677Z,95640.75
2023-01-28T04:48:41.598Z,95643.91
2023-01-28T04:51:26.684Z,95652.06
2023-01-28T04:54:17.235Z,95648.13
2023-01-28T04:56:43.881Z,95657.91
2023-01-28T04:59:10.386Z,95652.72
2023-01-28T05:01:38.002Z,95657.59
2023-01-28T05:04:05.994Z,95658.22
2023-01-28T05:06:36.130Z,95657.25
2023-01-28T05:09:08.643Z,95661.72
2023-01-28T05:11:37.853Z,95654.56
2023-01-28T05:14:05.836Z,95658.00
2023-01-28T05:16:42.731Z,95659.22
2023-01-28T05:19:09.384Z,95658.00
2023-01-28T05:21:39.782Z,95651.84
2023-01-28T05:24:14.412Z,95653.03
2023-01-28T05:26:41.130Z,95661.38
2023-01-28T05:29:08.177Z,95668.47
2023-01-28T05:31:35.108Z,95661.72
2023-01-28T05:34:01.772Z,95675.09
2023-01-28T05:36:28.321Z,95677.06
2023-01-28T05:38:55.810Z,95677.59
2023-01-28T05:41:22.394Z,95678.84
2023-01-28T05:43:55.803Z,95677.06
2023-01-28T05:46:45.425Z,95679.88
2023-01-28T05:49:34.759Z,95688.22
2023-01-28T05:52:26.963Z,95692.03
2023-01-28T05:54:53.674Z,95703.44
2023-01-28T05:57:20.273Z,95698.50
2023-01-28T05:59:46.886Z,95701.00
2023-01-28T06:02:13.520Z,95700.78
2023-01-28T06:04:41.660Z,95706.56
2023-01-28T06:07:09.114Z,95707.00
2023-01-28T06:09:38.067Z,95702.41
2023-01-28T06:12:05.213Z,95702.66
2023-01-28T06:14:39.384Z,95711.88
2023-01-28T06:17:25.867Z,95715.25
2023-01-28T06:20:02.033Z,95709.59
2023-01-28T06:22:30.746Z,95719.03
2023-01-28T06:24:57.305Z,95712.91
2023-01-28T06:27:23.949Z,95715.78
2023-01-28T06:29:50.608Z,95714.78
2023-01-28T06:32:17.192Z,95720.56
2023-01-28T06:34:43.757Z,95716.00
2023-01-28T06:37:13.439Z,95720.03
2023-01-28T06:39:40.155Z,95724.59
2023-01-28T06:42:06.880Z,95721.28
2023-01-28T06:44:33.442Z,95730.72
2023-01-28T06:47:00.180Z,95731.75
2023-01-28T06:49:26.725Z,95736.03
2023-01-28T06:51:53.272Z,95734.44
2023-01-28T06:54:19.997Z,95740.34
2023-01-28T06:56:46.542Z,95735.50
2023-01-28T06:59:13.598Z,95737.25
2023-01-28T07:01:40.246Z,95741.81
2023-01-28T07:04:07.171Z,95742.94
2023-01-28T07:06:33.706Z,95739.97
2023-01-28T07:09:00.228Z,95753.75
2023-01-28T07:11:26.754Z,95751.78
2023-01-28T07:13:53.467Z,95744.84
2023-01-28T07:16:19.999Z,95747.31
2023-01-28T07:18:46.617Z,95750.00
2023-01-28T07:21:13.147Z,95748.88
2023-01-28T07:23:39.964Z,95760.56
2023-01-28T07:26:06.526Z,95749.97
2023-01-28T07:28:33.089Z,95761.91
2023-01-28T07:30:59.827Z,95762.13
2023-01-28T07:33:26.741Z,95767.59
2023-01-28T07:35:53.330Z,95765.22
2023-01-28T07:38:19.843Z,95771.78
2023-01-28T07:40:46.488Z,95774.47
2023-01-28T07:43:13.148Z,95774.38
2023-01-28T07:45:40.641Z,95770.72
2023-01-28T07:48:09.841Z,95780.78
2023-01-28T07:50:38.037Z,95779.94
2023-01-28T07:53:10.782Z,95785.97
2023-01-28T07:55:38.310Z,95786.72
2023-01-28T07:58:07.244Z,95784.31
2023-01-28T08:00:35.965Z,95793.13
2023-01-28T08:03:06.775Z,95795.09
2023-01-28T08:05:43.291Z,95798.25
2023-01-28T08:08:11.387Z,95805.63
2023-01-28T08:10:38.814Z,95804.19
2023-01-28T08:13:06.099Z,95806.66
2023-01-28T08:15:35.197Z,95805.00
2023-01-28T08:18:03.125Z,95800.94
2023-01-28T08:20:30.457Z,95815.91
2023-01-28T08:23:12.708Z,95806.53
2023-01-28T08:25:39.363Z,95806.94
2023-01-28T08:28:06.962Z,95819.00
2023-01-28T08:30:34.239Z,95820.84
2023-01-28T08:33:01.418Z,95819.41
2023-01-28T08:35:28.578Z,95823.13
2023-01-28T08:37:55.144Z,95817.63
2023-01-28T08:40:21.965Z,95830.44
2023-01-28T08:42:50.255Z,95827.81
2023-01-28T08:45:17.611Z,95822.09
2023-01-28T08:47:48.732Z,95827.78
2023-01-28T08:50:16.659Z,95823.13
2023-01-28T08:52:44.437Z,95837.16
2023-01-28T08:55:12.140Z,95839.22
2023-01-28T08:57:39.394Z,95832.38
2023-01-28T09:00:07.369Z,95838.66
2023-01-28T09:02:33.897Z,95838.34
2023-01-28T09:05:00.494Z,95841.44
2023-01-28T09:07:27.142Z,95842.28
2023-01-28T09:09:53.684Z,95843.19
2023-01-28T09:12:20.369Z,95845.88
2023-01-28T09:14:46.903Z,95852.25
2023-01-28T09:17:13.461Z,95848.38
2023-01-28T09:19:40.210Z,95843.94
2023-01-28T09:22:06.790Z,95843.84
2023-01-28T09:24:33.429Z,95846.84
2023-01-28T09:26:59.991Z,95843.44
2023-01-28T09:29:26.561Z,95847.72
2023-01-28T09:31:53.136Z,95846.25
2023-01-28T09:34:19.709Z,95845.75
2023-01-28T09:36:46.581Z,95851.09
2023-01-28T09:39:13.146Z,95845.25
2023-01-28T09:41:42.634Z,95845.25
2023-01-28T09:44:28.880Z,95854.19
2023-01-28T09:47:01.973Z,95846.19
2023-01-28T09:49:44.627Z,95840.03
2023-01-28T09:52:17.723Z,95834.16
2023-01-28T09:55:02.825Z,95838.31
2023-01-28T09:57:41.623Z,95842.75
2023-01-28T10:00:37.966Z,95841.84
2023-01-28T10:03:28.224Z,95839.59
2023-01-28T10:06:32.575Z,95835.91
2023-01-28T10:09:19.356Z,95831.84
2023-01-28T10:11:51.438Z,95837.63
2023-01-28T10:14:24.471Z,95836.66
2023-01-28T10:17:00.710Z,95831.44
2023-01-28T10:19:35.600Z,95827.81
2023-01-28T10:22:07.378Z,95831.88
2023-01-28T10:24:36.520Z,95828.69
2023-01-28T10:27:12.588Z,95830.34
2023-01-28T10:29:40.423Z,95825.75
2023-01-28T10:32:34.376Z,95829.06
2023-01-28T10:35:03.729Z,95825.63
2023-01-28T10:37:39.729Z,95829.28
2023-01-28T10:40:14.225Z,95819.56
2023-01-28T10:42:40.901Z,95821.94
2023-01-28T10:45:31.023Z,95819.69
2023-01-28T10:48:07.856Z,95824.06
2023-01-28T10:50:37.855Z,95824.53
2023-01-28T10:53:06.121Z,95823.69
2023-01-28T10:55:55.863Z,95813.75
2023-01-28T10:58:25.528Z,95821.47
2023-01-28T11:00:54.592Z,95818.75
2023-01-28T11:03:22.944Z,95813.84
2023-01-28T11:05:54.496Z,95808.66
2023-01-28T11:08:22.370Z,95815.44
2023-01-28T11:10:49.574Z,95819.06
2023-01-28T11:13:26.710Z,95813.63
2023-01-28T11:16:05.571Z,95813.44
2023-01-28T11:18:40.807Z,95811.66
2023-01-28T11:21:16.924Z,95812.38
2023-01-28T11:23:59.664Z,95807.53
2023-01-28T11:26:39.736Z,95809.50
2023-01-28T11:29:07.327Z,95812.44
2023-01-28T11:31:44.037Z,95810.41
2023-01-28T11:34:17.256Z,95808.13
2023-01-28T11:37:00.891Z,95812.72
2023-01-28T11:39:29.559Z,95817.53
2023-01-28T11:42:11.258Z,95820.59
2023-01-28T11:44:38.524Z,95818.19
2023-01-28T11:47:19.624Z,95809.34
2023-01-28T11:49:55.334Z,95817.50
2023-01-28T11:52:55.300Z,95823.09
2023-01-28T11:55:39.958Z,95814.50
2023-01-28T11:58:25.947Z,95806.53
2023-01-28T12:01:16.619Z,95807.19
2023-01-28T12:04:07.890Z,95807.00
2023-01-28T12:06:53.207Z,95814.78
2023-01-28T12:09:44.185Z,95811.13
2023-01-28T12:12:38.592Z,95819.97
2023-01-28T12:15:20.340Z,95823.56
2023-01-28T12:18:06.409Z,95818.22
2023-01-28T12:20:42.136Z,95809.69
2023-01-28T12:23:46.453Z,95813.81
2023-01-28T12:26:16.364Z,95807.28
2023-01-28T12:28:44.585Z,95808.06
2023-01-28T12:31:20.076Z,95814.16
2023-01-28T12:33:54.577Z,95805.19
2023-01-28T12:36:37.997Z,95811.09
2023-01-28T12:39:23.123Z,95811.50
2023-01-28T12:42:34.531Z,95813.78
2023-01-28T12:45:40.943Z,95809.69
2023-01-28T12:48:53.742Z,95814.28
2023-01-28T12:51:27.542Z,95814.88
2023-01-28T12:54:03.881Z,95812.34
2023-01-28T12:56:40.249Z,95808.59
2023-01-28T12:59:20.094Z,95812.66
2023-01-28T13:02:11.476Z,95821.00
2023-01-28T13:04:43.945Z,95817.84
2023-01-28T13:07:50.097Z,95816.97
2023-01-28T13:10:24.342Z,95819.97
2023-01-28T13:12:51.782Z,95821.81
2023-01-28T13:15:20.201Z,95828.09
2023-01-28T13:18:05.065Z,95829.50
2023-01-28T13:20:49.971Z,95829.59
2023-01-28T13:23:37.629Z,95836.22
2023-01-28T13:26:19.206Z,95829.69
2023-01-28T13:28:48.062Z,95831.72
2023-01-28T13:31:17.709Z,95829.94
2023-01-28T13:33:54.738Z,95836.91
2023-01-28T13:36:45.606Z,95841.63
2023-01-28T13:39:18.114Z,95844.84
2023-01-28T13:41:52.396Z,95843.56
2023-01-28T13:44:32.593Z,95839.03
2023-01-28T13:47:14.711Z,95841.16
2023-01-28T13:49:48.774Z,95847.75
2023-01-28T13:52:25.171Z,95847.75
2023-01-28T13:55:03.474Z,95855.00
2023-01-28T13:57:58.040Z,95850.69
2023-01-28T14:00:33.013Z,95850.09
2023-01-28T14:03:26.245Z,95860.78
2023-01-28T14:06:26.398Z,95866.25
2023-01-28T14:09:04.322Z,95862.44
2023-01-28T14:12:11.524Z,95870.81
2023-01-28T14:15:16.591Z,95875.66
2023-01-28T14:17:53.855Z,95869.72
2023-01-28T14:20:28.850Z,95867.53
2023-01-28T14:23:01.528Z,95875.19
2023-01-28T14:25:40.967Z,95873.25
2023-01-28T14:28:12.796Z,95870.25
2023-01-28T14:30:50.672Z,95870.47
2023-01-28T14:33:17.798Z,95878.06
2023-01-28T14:35:47.147Z,95874.63
2023-01-28T14:38:21.140Z,95883.97
2023-01-28T14:40:55.569Z,95878.59
2023-01-28T14:43:24.868Z,95886.72
2023-01-28T14:45:51.429Z,95884.47
2023-01-28T14:48:29.754Z,95887.19
2023-01-28T14:51:31.197Z,95892.19
2023-01-28T14:54:18.450Z,95891.56
2023-01-28T14:57:15.639Z,95891.16
2023-01-28T14:59:53.811Z,95889.81
2023-01-28T15:02:31.049Z,95894.91
2023-01-28T15:05:15.023Z,95900.13
2023-01-28T15:07:46.368Z,95904.28
2023-01-28T15:10:19.144Z,95894.44
2023-01-28T15:12:52.013Z,95903.31
2023-01-28T15:15:29.544Z,95906.53
2023-01-28T15:18:03.209Z,95907.25
2023-01-28T15:20:30.752Z,95905.19
2023-01-28T15:22:57.555Z,95903.31
2023-01-28T15:25:28.115Z,95912.53
2023-01-28T15:27:58.825Z,95909.00
2023-01-28T15:30:28.711Z,95913.63
2023-01-28T15:33:01.349Z,95912.19
2023-01-28T15:35:28.409Z,95919.41
2023-01-28T15:37:55.046Z,95919.84
2023-01-28T15:40:23.075Z,95923.28
2023-01-28T15:42:50.870Z,95924.34
2023-01-28T15:45:19.658Z,95928.13
2023-01-28T15:47:47.937Z,95932.50
2023-01-28T15:50:19.367Z,95938.44
2023-01-28T15:52:46.483Z,95944.50
2023-01-28T15:55:37.392Z,95947.22
2023-01-28T15:58:20.410Z,95945.31
2023-01-28T16:00:48.665Z,95944.91
2023-01-28T16:03:20.733Z,95945.22
2023-01-28T16:06:02.406Z,95946.06
2023-01-28T16:11:02.775Z,95947.94
2023-01-28T16:13:32.831Z,95950.25
2023-01-28T16:16:01.545Z,95948.09
2023-01-28T16:18:43.327Z,95955.59
2023-01-28T16:21:15.209Z,95956.38
2023-01-28T16:24:13.560Z,95961.28
2023-01-28T16:26:40.127Z,95959.16
2023-01-28T16:29:15.216Z,95967.59
2023-01-28T16:31:41.820Z,95971.41
2023-01-28T16:34:10.888Z,95972.19
2023-01-28T16:36:37.588Z,95977.94
2023-01-28T16:39:04.220Z,95979.28
2023-01-28T16:41:35.291Z,95981.25
2023-01-28T16:44:05.530Z,95982.84
2023-01-28T16:46:33.458Z,95982.59
2023-01-28T16:49:00.413Z,95976.06
2023-01-28T16:51:27.012Z,95986.38
2023-01-28T16:53:53.637Z,95983.75
2023-01-28T16:56:43.607Z,95996.25
2023-01-28T16:59:11.936Z,95995.34
2023-01-28T17:01:38.592Z,95995.84
2023-01-28T17:04:11.546Z,95994.91
2023-01-28T17:06:39.720Z,95998.66
2023-01-28T17:09:06.439Z,96002.50
2023-01-28T17:11:34.057Z,95999.69
2023-01-28T17:14:01.113Z,95999.25
2023-01-28T17:16:28.093Z,96012.56
2023-01-28T17:18:55.039Z,96009.59
2023-01-28T17:21:21.956Z,96004.66
2023-01-28T17:23:48.646Z,96001.88
2023-01-28T17:26:16.347Z,96005.81
2023-01-28T17:28:43.414Z,96012.78
2023-01-28T17:31:12.850Z,96004.91
2023-01-28T17:33:40.710Z,96016.25
2023-01-28T17:36:07.980Z,96017.59
2023-01-28T17:38:34.646Z,96019.06
2023-01-28T17:41:05.856Z,96020.00
2023-01-28T17:43:34.444Z,96014.59
2023-01-28T17:46:01.789Z,96016.47
2023-01-28T17:48:29.454Z,96021.78
2023-01-28T17:50:57.195Z,96019.28
2023-01-28T17:53:24.472Z,96028.34
2023-01-28T17:55:51.200Z,96030.63
2023-01-28T17:58:17.811Z,96026.88
2023-01-28T18:00:44.393Z,96029.78
2023-01-28T18:03:15.065Z,96029.03
2023-01-28T18:05:42.255Z,96027.25
2023-01-28T18:08:08.925Z,96029.03
2023-01-28T18:10:35.703Z,96033.72
2023-01-28T18:13:02.273Z,96024.06
2023-01-28T18:15:28.911Z,96025.31
2023-01-28T18:17:55.461Z,96020.94
2023-01-28T18:20:22.026Z,96037.78
2023-01-28T18:22:48.768Z,96038.84
2023-01-28T18:25:17.596Z,96038.38
2023-01-28T18:27:45.168Z,96039.03
2023-01-28T18:30:14.099Z,96035.50
2023-01-28T18:32:40.740Z,96039.44
2023-01-28T18:35:07.877Z,96051.81
2023-01-28T18:37:34.423Z,96046.19
2023-01-28T18:40:01.024Z,96043.53
2023-01-28T18:42:27.663Z,96040.38
2023-01-28T18:44:54.250Z,96041.63
2023-01-28T18:47:21.523Z,96040.41
2023-01-28T18:49:48.070Z,96050.28
2023-01-28T18:52:14.681Z,96052.13
2023-01-28T18:54:41.229Z,96051.81
2023-01-28T18:57:07.805Z,96048.28
2023-01-28T18:59:34.381Z,96048.59
2023-01-28T19:02:01.559Z,96053.91
2023-01-28T19:04:28.105Z,96045.38
2023-01-28T19:06:57.847Z,96053.97
2023-01-28T19:09:24.371Z,96054.09
2023-01-28T19:11:51.191Z,96055.78
2023-01-28T19:14:18.135Z,96053.38
2023-01-28T19:16:44.847Z,96050.88
2023-01-28T19:19:12.155Z,96052.66
2023-01-28T19:21:38.885Z,96054.81
2023-01-28T19:24:09.609Z,96052.00
2023-01-28T19:26:37.072Z,96047.88
2023-01-28T19:29:07.573Z,96040.38
2023-01-28T19:31:34.150Z,96041.84
2023-01-28T19:34:00.870Z,96048.47
2023-01-28T19:36:29.798Z,96053.88
2023-01-28T19:39:01.679Z,96047.97
2023-01-28T19:41:29.051Z,96047.53
2023-01-28T19:43:56.623Z,96049.19
2023-01-28T19:46:23.272Z,96050.03
2023-01-28T19:48:49.903Z,96053.97
2023-01-28T19:51:17.289Z,96047.84
2023-01-28T19:53:45.050Z,96043.94
2023-01-28T19:56:16.317Z,96050.75
2023-01-28T19:58:44.344Z,96051.19
2023-01-28T20:01:13.619Z,96057.53
2023-01-28T20:03:40.782Z,96053.47
2023-01-28T20:06:11.580Z,96058.66
2023-01-28T20:08:38.146Z,96052.84
2023-01-28T20:11:11.043Z,96054.28
2023-01-28T20:13:39.529Z,96059.06
2023-01-28T20:16:08.363Z,96049.00
2023-01-28T20:18:35.738Z,96052.00
2023-01-28T20:21:04.849Z,96057.72
2023-01-28T20:23:31.752Z,96056.28
2023-01-28T20:26:00.937Z,96060.50
2023-01-28T20:28:28.147Z,96053.31
2023-01-28T20:30:55.513Z,96048.72
2023-01-28T20:33:22.884Z,96059.69
2023-01-28T20:35:49.451Z,96056.16
2023-01-28T20:38:15.964Z,96064.16
2023-01-28T20:40:43.250Z,96064.56
2023-01-28T20:43:10.086Z,96065.91
2023-01-28T20:45:36.687Z,96069.88
2023-01-28T20:48:03.238Z,96062.28
2023-01-28T20:50:29.760Z,96064.34
2023-01-28T20:52:56.486Z,96070.00
2023-01-28T20:55:23.082Z,96074.75
2023-01-28T20:57:51.947Z,96076.50
2023-01-28T21:00:19.087Z,96074.66
2023-01-28T21:02:46.012Z,96076.63
2023-01-28T21:05:12.868Z,96083.19
2023-01-28T21:07:39.551Z,96083.81
2023-01-28T21:10:06.617Z,96084.00
2023-01-28T21:12:33.436Z,96081.50
2023-01-28T21:14:59.945Z,96077.78
2023-01-28T21:17:26.509Z,96079.13
2023-01-28T21:19:53.024Z,96083.38
2023-01-28T21:22:20.119Z,96084.56
2023-01-28T21:24:48.843Z,96091.91
2023-01-28T21:27:15.525Z,96093.56
2023-01-28T21:29:42.328Z,96090.47
2023-01-28T21:32:09.006Z,96084.94
2023-01-28T21:34:35.665Z,96097.66
2023-01-28T21:37:02.279Z,96088.91
2023-01-28T21:39:28.882Z,96097.53
2023-01-28T21:41:55.622Z,96087.78
2023-01-28T21:44:22.388Z,96100.13
2023-01-28T21:46:49.013Z,96091.06
2023-01-28T21:49:15.661Z,96101.28
2023-01-28T21:51:47.938Z,96100.38
2023-01-28T21:54:16.906Z,96108.75
2023-01-28T21:56:47.838Z,96103.38
2023-01-28T21:59:30.647Z,96106.38
2023-01-28T22:02:02.703Z,96102.00
2023-01-28T22:04:32.627Z,96103.38
2023-01-28T22:07:00.258Z,96104.63
2023-01-28T22:09:27.650Z,96109.19
2023-01-28T22:11:54.399Z,96107.34
2023-01-28T22:14:21.000Z,96107.56
2023-01-28T22:16:48.076Z,96114.00
2023-01-28T22:19:15.031Z,96104.84
2023-01-28T22:21:43.620Z,96103.91
2023-01-28T22:24:15.188Z,96105.75
2023-01-28T22:26:43.056Z,96111.06
2023-01-28T22:29:10.443Z,96116.47
2023-01-28T22:31:37.620Z,96119.59
2023-01-28T22:34:04.989Z,96117.13
2023-01-28T22:36:32.984Z,96112.84
2023-01-28T22:39:02.915Z,96103.09
2023-01-28T22:41:30.177Z,96105.38
2023-01-28T22:43:56.904Z,96102.25
2023-01-28T22:46:25.055Z,96093.84
2023-01-28T22:48:51.819Z,96096.53
2023-01-28T22:51:24.309Z,96089.22
2023-01-28T22:53:52.210Z,96084.00
2023-01-28T22:56:22.054Z,96083.72
2023-01-28T22:58:48.740Z,96085.72
2023-01-28T23:01:15.685Z,96081.84
2023-01-28T23:03:49.822Z,96085.72
2023-01-28T23:06:18.877Z,96088.81
2023-01-28T23:08:45.789Z,96094.84
2023-01-28T23:11:15.549Z,96096.53
2023-01-28T23:14:01.610Z,96100.78
2023-01-28T23:16:47.789Z,96096.19
2023-01-28T23:19:33.540Z,96090.19
2023-01-28T23:22:19.317Z,96091.72
2023-01-28T23:24:45.865Z,96090.56
2023-01-28T23:27:12.421Z,96096.19
2023-01-28T23:29:38.973Z,96092.88
2023-01-28T23:32:09.910Z,96090.38
2023-01-28T23:34:41.629Z,96094.31
2023-01-28T23:37:09.886Z,96090.38
2023-01-28T23:39:36.691Z,96094.34
2023-01-28T23:42:13.904Z,96092.25
2023-01-28T23:44:40.691Z,96095.59
2023-01-28T23:47:07.692Z,96088.91
2023-01-28T23:49:34.254Z,96089.44
2023-01-28T23:52:01.403Z,96079.88
2023-01-28T23:54:28.013Z,96084.47
2023-01-28T23:56:54.533Z,96084.78
2023-01-28T23:59:21.465Z,96093.28
